Tiempo atmosférico en la estación meteorológica de Caravaca de La Cruz, Murcia (643 m.)



Fecha
DESCASC
Temp. máxima en grados centígrados (hora)
DESCASC
Temp. mínima en grados centígrados (hora)
DESCASC
Temp. media en grados centígrados
DESCASC
Racha de viento máxima en m/sg (hora)
DESCASC
Velocidad máxima media en intervalos de 10 minutos(hora)
DESCASC
Precipitaciones diarias en mm
DESCASC
Precipitaciones de 00:00 a 06:00 en mm
DESCASC
Precipitaciones de 06:00 a 12:00 en mm
DESCASC
Precipitaciones de 12:00 a 18:00 en mm
DESCASC
Precipitaciones de 18:00 a 24:00 en mm
DESCASC
05-04-2020 17.8 (14:40) 4.1 (07:20) 10.9 6.39 (15:40) 3.61 (15:50) 0 0 0 0 0
04-04-2020 16.2 (12:50) 2.9 (08:10) 9.6 6.94 (09:10) 4.44 (09:10) 0 0 0 0 0
03-04-2020 18.2 (14:40) 4 (08:10) 11.1 7.22 (22:40) 4.72 (22:40) 0.2 0.2 0 0 0
02-04-2020 15.4 (14:20) 3.9 (00:00) 9.6 6.67 (16:50) 4.17 (05:10) 2.6 0 0 0 2.6
01-04-2020 18.2 (14:40) 7.7 (00:00) 13 7.5 (19:40) 3.61 (18:30) 17 0.2 0 0 16.8
31-03-2020 13.4 (16:10) 7.7 (00:00) 10.5 4.44 (00:20) 2.5 (04:30) 4.8 1 3.6 0 0.2
30-03-2020 18.4 (12:10) 6.6 (00:00) 12.5 8.33 (18:40) 4.44 (05:50) 17 0 0 11.6 5.4
29-03-2020 18.4 (15:40) 3.4 (00:00) 10.9 6.67 (21:20) 5 (07:20) 0 0 0 0 0
28-03-2020 13.8 (13:50) 3.5 (00:00) 8.7 7.22 (15:50) 3.61 (15:50) 11.8 11.4 0.4 0 0
27-03-2020 7.7 (00:00) 5.2 (00:00) 6.4 5.83 (17:50) 3.06 (17:40) 17.6 1.6 2.6 7.2 6.2
26-03-2020 18.3 (13:50) 2.6 (00:00) 10.4 11.94 (11:50) 4.72 (13:20) 1.4 1.4 0 0 0
25-03-2020 14.4 (14:10) 4.2 (00:00) 9.3 8.61 (20:20) 5.28 (20:20) 1.2 0 0 1.2 0
24-03-2020 9.4 (13:00) 6.8 (00:00) 8.1 11.39 (03:10) 5.83 (03:00) 21.8 5.4 4.6 8.2 3.6
23-03-2020 12.7 (12:40) 4.5 (00:00) 8.6 9.17 (18:40) 4.17 (18:20) 17.2 0 0.2 5 12
22-03-2020 10.2 (16:20) 4.4 (04:50) 7.3 5.83 (18:30) 3.33 (18:10) 0.6 0 0.2 0.4 0
21-03-2020 11.5 (09:00) 5.8 (00:00) 8.7 7.22 (14:40) 4.17 (13:50) 6.8 0.2 0.2 6.2 0.2
20-03-2020 12.2 (10:20) 6.4 (00:00) 9.3 5.83 (12:00) 3.06 (12:00) 0.4 0 0 0 0.4
19-03-2020 14.3 (16:40) 7.3 (00:00) 10.8 5.56 (17:40) 3.33 (17:20) 0 0 0 0 0
18-03-2020 14.7 (13:00) 9.1 (00:00) 11.9 7.78 (16:20) 4.17 (11:00) 0 0 0 0 0
17-03-2020 14.8 (14:00) 0.9 (00:00) 7.9 9.44 (21:00) 4.17 (20:40) 3 0 0 0 3
16-03-2020 12.8 (10:20) 2 (00:00) 7.4 8.89 (11:40) 4.17 (11:30) 1 0 1 0 0
15-03-2020 19.7 (15:10) 7.8 (00:00) 13.8 7.78 (17:50) 4.44 (18:30) 0 0 0 0 0
14-03-2020 20.4 (13:50) 6.1 (00:00) 13.2 6.67 (16:20) 3.33 (14:30) 0 0 0 0 0
13-03-2020 21.8 (13:40) 8.7 (23:59) 15.2 6.39 (16:50) 4.17 (01:40) 0 0 0 0 0
12-03-2020 28.2 (14:40) 8.3 (00:00) 18.3 6.67 (00:50) 4.72 (08:30) 0 0 0 0 0
11-03-2020 28.2 (15:00) 10.1 (00:00) 19.2 8.61 (04:30) 5.56 (04:20) 0 0 0 0 0
10-03-2020 23.5 (15:10) 6.8 (00:00) 15.2 7.78 (14:20) 4.44 (22:50) 0 0 0 0 0

Gráficas

Temp. máximas Temp. mínimas Temp. medias Precipitaciones Rachas de viento máximas Velocidades máximas media en intervalos de 10 minutos

Datos horarios

Fecha y hora oficial Temperatura (ºC) Velocidad del viento (km/h) Dirección del viento Racha (km/h) Dirección de racha Precipitación (mm) Presión (hPa) Tendencia (hPa) Humedad (%)
2020-04-08 23:00:00 11 3 Norte 9 Norte 0 948.5 1.5 65
2020-04-08 22:00:00 12.2 5 Norte 12 Norte 0 948.1 1.3 61
2020-04-08 21:00:00 12.9 5 Norte 12 Norte 0 947.5 0.8 63
2020-04-08 20:00:00 15.2 5 Nordeste 15 Este 0 947 0 54
2020-04-08 19:00:00 16.6 10 Este 20 Este 0 946.8 -0.8 48
2020-04-08 18:00:00 17.4 11 Nordeste 20 Nordeste 0 946.7 -1.6 49
2020-04-08 17:00:00 18.6 8 Este 19 Este 0 947 -1.8 48
2020-04-08 16:00:00 18.6 10 Este 20 Este 0 947.6 -1.9 46
2020-04-08 15:00:00 18.8 7 Sudeste 18 Este 0 948.3 -1.5 43
2020-04-08 14:00:00 17.9 7 Este 20 Este 0 948.8 -1.1 39
2020-04-08 13:00:00 16.1 9 Este 15 Este 0 949.5 -0.5 43
2020-04-08 12:00:00 16 8 Este 16 Este 0 949.8 -0.2 42
2020-04-08 11:00:00 14.1 6 Este 13 Este 0 949.9 0.2 43
2020-04-08 10:00:00 12.7 6 Nordeste 13 Este 0 950 0.5 40
2020-04-08 09:00:00 8 0 Calma 4 Este 0 950 0.4 79
2020-04-08 08:00:00 4 4 Oeste 5 Noroeste 0 949.7 -0.3 88
2020-04-08 07:00:00 4.3 2 Oeste 5 Noroeste 0 949.5 -0.8 87
2020-04-08 06:00:00 4.9 3 Noroeste 8 Oeste 0 949.6 -1.3 87
2020-04-08 05:00:00 6.1 3 Oeste 9 Sudoeste 0 950 -1.3 89
2020-04-08 04:00:00 6.4 0 Calma 9 Oeste 0 950.3 -1.1 88
2020-04-08 03:00:00 7 3 Oeste 9 Oeste 0 950.9 -0.4 84
2020-04-08 02:00:00 7.9 4 Sudoeste 8 Norte 0 951.3 0.1 80
2020-04-08 01:00:00 9 3 Noroeste 7 Nordeste 0 951.4 1 80
2020-04-08 00:00:00 11.1 4 Nordeste 14 Nordeste 0 951.3 1.2 74
2020-04-07 23:00:00 12.4 5 Nordeste 13 Nordeste 0 951.2 1.7 70
2020-04-07 22:00:00 12.9 4 Norte 8 Norte 0 950.4 1.5 65
2020-04-07 21:00:00 13.5 6 Nordeste 18 Este 0 950.1 1.2 63
2020-04-07 20:00:00 14.8 10 Este 17 Este 0 949.5 0.3 64
2020-04-07 19:00:00 15.9 8 Este 15 Este 0 948.9 -0.8 63
2020-04-07 18:00:00 16.6 8 Este 14 Este 0 948.9 -1.3 63
2020-04-07 17:00:00 16 5 Este 10 Este 0 949.2 -1.4 65
2020-04-07 16:00:00 16 3 Sur 12 Norte 0 949.7 -1.1 65
2020-04-07 15:00:00 14.7 3 Oeste 8 Sudoeste 0 950.2 -0.8 74
2020-04-07 14:00:00 13.4 3 Sur 12 Este 0 950.6 -0.2 76
2020-04-07 13:00:00 12.5 6 Sudeste 13 Nordeste 0 950.8 0.5 79
2020-04-07 12:00:00 12 5 Este 15 Este 0 951 1.2 82
2020-04-07 11:00:00 11.3 8 Nordeste 13 Este 0 950.8 1 87
2020-04-07 10:00:00 10.9 2 Nordeste 8 Este 0 950.3 0.7 90
2020-04-07 09:00:00 10.4 4 Nordeste 13 Nordeste 0 949.8 0.3 91
2020-04-07 08:00:00 10.5 5 Nordeste 8 Este 0 949.8 0.4 91
2020-04-07 07:00:00 10.6 0 Calma 5 Este 0 949.6 0.1 91
2020-04-07 06:00:00 10.6 4 Sudeste 9 Este 0 949.5 -0.3 90
2020-04-07 05:00:00 10.7 4 Este 10 Nordeste 0 949.4 -0.1 90
2020-04-07 04:00:00 10.7 5 Nordeste 11 Nordeste 0 949.5 -0.1 89
2020-04-07 03:00:00 11.1 6 Este 13 Este 0 949.8 0 86
2020-04-07 02:00:00 11.4 5 Nordeste 10 Este 0 949.5 -0.2 84
2020-04-07 01:00:00 11.8 0 Calma 14 Nordeste 0 949.6 0.6 84
2020-04-07 00:00:00 12.3 6 Nordeste 12 Este 0 949.8 1.5 83
2020-04-06 23:00:00 12.9 5 Nordeste 11 Nordeste 0 949.7 1.8 83
2020-04-06 22:00:00 13.3 6 Nordeste 14 Nordeste 0 949 1.6 81
2020-04-06 21:00:00 14.6 8 Este 13 Este 0 948.3 1 75
2020-04-06 20:00:00 15.4 7 Nordeste 15 Nordeste 0 947.9 0.7 71
2020-04-06 19:00:00 16 10 Nordeste 17 Este 0 947.4 -0.2 68
2020-04-06 18:00:00 16.9 11 Nordeste 21 Este 0 947.3 -0.7 64
2020-04-06 17:00:00 17.9 8 Este 20 Este 0 947.2 -0.9 59
2020-04-06 16:00:00 17.6 10 Este 21 Este 0 947.6 -0.8 63
2020-04-06 15:00:00 16.9 8 Este 17 Este 0 948 -0.4 64
2020-04-06 14:00:00 15.2 10 Este 18 Este 0 948.1 0 69
2020-04-06 13:00:00 14.6 9 Este 17 Sudeste 0 948.4 0.8 71
2020-04-06 12:00:00 14.9 7 Este 14 Nordeste 0 948.4 1.3 71
2020-04-06 11:00:00 12.2 4 Este 8 Este 0 948.1 1.3 77
2020-04-06 10:00:00 10.9 4 Sudeste 9 Sudeste 0 947.6 1.7 82
2020-04-06 09:00:00 10.2 4 Sudeste 7 Sudeste 0 947.1 1.3 85
2020-04-06 08:00:00 10 3 Sudeste 5 Este 0 946.8 0.9 85
2020-04-06 07:00:00 10.2 2 Sur 6 Este 0 945.9 -0.1 85
2020-04-06 06:00:00 10.4 3 Sudeste 10 Sur 0 945.8 -0.4 85
2020-04-06 05:00:00 10.6 4 Sur 9 Sur 0 945.9 -0.3 85
2020-04-06 04:00:00 10.7 3 Sudoeste 12 Sur 0 946 0 84
2020-04-06 03:00:00 10.9 6 Sudoeste 13 Sur 0 946.2 0.3 83
2020-04-06 02:00:00 10.7 3 Sur 7 Sur 0 946.2 0.6 84
2020-04-06 01:00:00 11 2 Sur 12 Sudoeste 0 946 0.7 81
2020-04-06 00:00:00 11.4 6 Sudoeste 18 Oeste 0 945.9 1.5 79
2020-04-05 23:00:00 10.4 3 Sudoeste 10 Sudoeste 0 945.6 1.6 84
2020-04-05 22:00:00 11.1 3 Noroeste 9 Norte 0 945.3 1.7 78
2020-04-05 21:00:00 12.3 6 Norte 12 Nordeste 0 944.4 1 73
2020-04-05 20:00:00 13.7 6 Nordeste 17 Nordeste 0 944 0.4 70
2020-04-05 19:00:00 14.9 9 Este 19 Este 0 943.6 -0.4 66
2020-04-05 18:00:00 16.5 10 Este 23 Este 0 943.4 -1.3 61
2020-04-05 17:00:00 16.8 11 Nordeste 22 Este 0 943.6 -1.7 57
2020-04-05 16:00:00 17.2 12 Este 23 Este 0 944 -1.5 59
2020-04-05 15:00:00 17.6 9 Este 19 Este 0 944.7 -1 56
2020-04-05 14:00:00 17.2 7 Este 17 Sudeste 0 945.3 -0.4 54
2020-04-05 13:00:00 16.4 7 Sudeste 19 Sudeste 0 945.5 -0.1 55
2020-04-05 12:00:00 14.8 8 Este 14 Este 0 945.7 0.3 55
2020-04-05 11:00:00 14 5 Sudeste 12 Sudeste 0 945.7 0.7 54
2020-04-05 10:00:00 11.4 2 Sudeste 9 Sudoeste 0 945.6 1.1 62
2020-04-05 09:00:00 7.1 7 Sudoeste 12 Sudoeste 0 945.4 1.1 77
2020-04-05 08:00:00 4.9 10 Oeste 17 Oeste 0 945 0.6 82
2020-04-05 07:00:00 4.3 3 Oeste 14 Oeste 0 944.5 0.1 85
2020-04-05 06:00:00 5.6 4 Oeste 17 Oeste 0 944.3 -0.6 83
2020-04-05 05:00:00 5.6 4 Oeste 10 Noroeste 0 944.4 -0.8 87
2020-04-05 04:00:00 7.2 4 Sudoeste 9 Oeste 0 944.4 -0.8 81
2020-04-05 03:00:00 8.6 5 Sudoeste 11 Sudoeste 0 944.9 -0.1 80
2020-04-05 02:00:00 9.6 6 Sudoeste -- -- 0 945.2 0.2 80
2020-04-05 01:00:00 9.8 2 Oeste 6 Nordeste 0 945.2 0.2 84
2020-04-05 00:00:00 10.1 2 Este 12 Nordeste 0 945 0.7 81
2020-04-04 23:00:00 10.5 2 Este 9 Este 0 945 1.3 77
2020-04-04 22:00:00 10.9 2 Este 10 Sudeste 0 945 1.6 76
2020-04-04 21:00:00 11.3 4 Sudeste 16 Sudeste 0 944.3 1.4 71
2020-04-04 20:00:00 12.2 7 Este 21 Sudeste 0 943.7 0.8 66
2020-04-04 19:00:00 13.2 13 Este 22 Este 0 943.4 0.4 61
2020-04-04 18:00:00 13.8 10 Sudeste 21 Sudeste 0 942.9 -0.5 55
2020-04-04 17:00:00 14.1 10 Sudeste 24 Este 0 942.9 -0.8 56
2020-04-04 16:00:00 15.1 10 Este 23 Este 0 943 -1.2 55
2020-04-04 15:00:00 15.3 12 Este 25 Este 0 943.4 -0.9 52
2020-04-04 14:00:00 14.3 8 Nordeste 17 Este 0 943.7 -0.6 58
2020-04-04 13:00:00 14.7 9 Sudeste 19 Este 0 944.2 0.3 57
2020-04-04 12:00:00 15.2 5 Sudeste 23 Oeste 0 944.3 0.5 59
2020-04-04 11:00:00 11.6 10 Sudoeste 24 Sudoeste 0 944.3 0.9 68
2020-04-04 10:00:00 8.6 16 Oeste 25 Oeste 0 943.9 1 80
2020-04-04 09:00:00 5.8 -- -- -- -- 0 943.8 0.8 88
2020-04-04 08:00:00 3 3 Sudoeste 15 Oeste 0 943.4 0.2 86
2020-04-04 07:00:00 4 8 Oeste 15 Oeste 0 942.9 -0.4 85
2020-04-04 06:00:00 4.1 5 Oeste 12 Sudoeste 0 943 -0.4 86
2020-04-04 05:00:00 5.5 10 Sudoeste 16 Sudoeste 0 943.2 -0.4 81
2020-04-04 04:00:00 6.1 8 Oeste 13 Sudoeste 0 943.3 -0.5 82
2020-04-04 03:00:00 7 7 Oeste 18 Oeste 0 943.4 -0.2 79
2020-04-04 02:00:00 7.8 13 Oeste 21 Oeste 0 943.6 0.2 77
2020-04-04 01:00:00 7.6 11 Sudoeste 19 Oeste 0 943.8 0.9 80
2020-04-04 00:00:00 8.5 10 Sudoeste 24 Oeste 0 943.6 1.5 77
2020-04-03 23:00:00 9.5 14 Oeste 26 Oeste 0 943.4 1.9 72
2020-04-03 22:00:00 10.5 15 Oeste 24 Oeste 0 942.9 1.6 70
2020-04-03 21:00:00 11.6 8 Oeste 22 Oeste 0 942.1 0.9 67
2020-04-03 20:00:00 13 6 Sur 12 Sur 0 941.5 0.2 65
2020-04-03 19:00:00 14.6 3 Sudeste 14 Sur 0 941.3 -0.2 56
2020-04-03 18:00:00 15.6 7 Este 14 Este 0 941.2 -0.6 51
2020-04-03 17:00:00 15.9 7 Este 18 Este 0 941.3 -1 46
2020-04-03 16:00:00 16 7 Nordeste 19 Nordeste 0 941.5 -1.2 48
2020-04-03 15:00:00 17.4 8 Este 21 Este 0 941.8 -1 42
2020-04-03 14:00:00 17.6 8 Sudeste 13 Sur 0 942.3 -0.2 46
2020-04-03 13:00:00 14.6 4 Sur 16 Nordeste 0 942.7 0.6 53
2020-04-03 12:00:00 15.4 6 Este 13 Este 0 942.8 1 59
2020-04-03 11:00:00 14.1 6 Este 12 Nordeste 0 942.5 1.4 59
2020-04-03 10:00:00 10.4 7 Sudoeste 16 Oeste 0 942.1 1.5 72
2020-04-03 09:00:00 6.5 11 Oeste 18 Oeste 0 941.8 1.6 90
2020-04-03 08:00:00 4.1 4 Oeste 10 Oeste 0 941.1 1.3 90
2020-04-03 07:00:00 5.1 2 Norte 16 Oeste 0 940.6 0.9 90
2020-04-03 06:00:00 6.1 9 Oeste 14 Oeste 0.2 940.2 0.3 91
2020-04-03 05:00:00 5.7 5 Noroeste 10 Oeste 0 939.8 -0.1 91
2020-04-03 04:00:00 6.8 4 Sudoeste 12 Sudoeste 0 939.7 -0.4 92
2020-04-03 03:00:00 6.1 3 Noroeste 6 Oeste 0 939.9 0 91
2020-04-03 02:00:00 5.9 3 Oeste 7 Oeste 0 939.9 0.4 91
2020-04-03 01:00:00 6.5 3 Noroeste 8 Norte 0 940.1 1.5 91
2020-04-03 00:00:00 6.3 5 Norte 10 Norte 0 939.9 1.9 90
2020-04-02 23:00:00 7.1 4 Norte 11 Noroeste 0 939.5 2.1 88
2020-04-02 22:00:00 7.6 3 Sudeste 13 Sudoeste 0 938.6 2.1 87
2020-04-02 21:00:00 8.1 4 Noroeste 17 Oeste 2.4 938 2.2 86
2020-04-02 20:00:00 9.9 5 Noroeste 19 Norte 0.2 937.4 1.6 71
2020-04-02 19:00:00 12.2 12 Sudoeste 22 Sudoeste 0 936.5 0.8 61
2020-04-02 18:00:00 12.2 12 Oeste 23 Sudoeste 0 935.8 -0.4 58
2020-04-02 17:00:00 13.1 10 Sudoeste 24 Sudoeste 0 935.8 -0.7 62
2020-04-02 16:00:00 15 8 Sudeste 17 Sudeste 0 935.7 -1.4 52
2020-04-02 15:00:00 14.2 6 Este 18 Sudeste 0 936.2 -1.4 51
2020-04-02 14:00:00 14.7 8 Este 18 Este 0 936.5 -0.5 49
2020-04-02 13:00:00 14.5 11 Este 21 Este 0 937.1 0.1 50
2020-04-02 12:00:00 12.2 9 Este 15 Nordeste 0 937.6 0.8 59
2020-04-02 11:00:00 12.7 8 Este 13 Este 0 937 0.6 59
2020-04-02 10:00:00 9.9 3 Este 14 Oeste 0 937 1.1 68
2020-04-02 09:00:00 5.9 8 Sudoeste 17 Oeste 0 936.8 0.8 79
2020-04-02 08:00:00 3.9 12 Oeste 21 Oeste 0 936.4 0 84
2020-04-02 07:00:00 4.4 11 Oeste 21 Sudoeste 0 935.9 -1.1 84
2020-04-02 06:00:00 4.4 9 Oeste 21 Oeste 0 936 -1.6 86
2020-04-02 05:00:00 5 10 Oeste 17 Oeste 0 936.4 -1.6 88
2020-04-02 04:00:00 5 8 Oeste 13 Oeste 0 937 -1.5 91
2020-04-02 03:00:00 5.2 3 Noroeste 8 Noroeste 0 937.6 -0.9 91
2020-04-02 02:00:00 6.5 5 Noroeste 9 Oeste 0 938 -0.1 91
2020-04-02 01:00:00 7.7 4 Noroeste 9 Nordeste 0 938.5 0.7 91
2020-04-02 00:00:00 8.3 4 Noroeste 7 Noroeste 0 938.5 1.6 91
2020-04-01 23:00:00 8.8 4 Norte 6 Noroeste 0.2 938.1 1.8 91
2020-04-01 22:00:00 9.2 6 Sur 9 Sur 1.2 937.8 2.8 91
2020-04-01 21:00:00 9.2 2 Sudoeste 8 Noroeste 2.6 936.9 1.9 90
2020-04-01 20:00:00 9.6 4 Norte 27 Sudeste 12.8 936.3 1 85
2020-04-01 19:00:00 14.7 8 Este 24 Este 0 935 -0.5 65
2020-04-01 18:00:00 15.2 11 Nordeste 24 Nordeste 0 935 -1.1 58
2020-04-01 17:00:00 16.4 10 Nordeste 26 Norte 0 935.3 -1.4 51
2020-04-01 16:00:00 17.5 12 Este 21 Este 0 935.5 -1.8 52
2020-04-01 15:00:00 16.6 8 Nordeste 20 Nordeste 0 936.1 -1.6 55
2020-04-01 14:00:00 16.1 12 Este 22 Sudeste 0 936.7 -1.1 58
2020-04-01 13:00:00 17.2 6 Sudeste 17 Nordeste 0 937.3 -0.3 51
2020-04-01 12:00:00 15.8 7 Este 13 Este 0 937.7 0.4 55
2020-04-01 11:00:00 14.3 6 Este 10 Este 0 937.8 0.9 66
2020-04-01 10:00:00 11.9 6 Sudoeste 12 Sur 0 937.6 1 77
2020-04-01 09:00:00 8.8 8 Sudoeste 15 Sudoeste 0 937.3 0.9 92
2020-04-01 08:00:00 9 5 Oeste 8 Oeste 0 936.9 0.9 92
2020-04-01 07:00:00 8.7 5 Sudoeste 8 Sudoeste 0 936.6 0 92
2020-04-01 06:00:00 7.7 3 Este 8 Este 0 936.4 -0.8 91
2020-04-01 05:00:00 9.2 4 Nordeste 10 Oeste 0 936 -1.1 91
2020-04-01 04:00:00 9.8 5 Sudoeste 11 Sudoeste 0.2 936.6 -0.3 91
2020-04-01 03:00:00 10 5 Sudoeste 8 Sudoeste 0 937.2 0.2 91
2020-04-01 02:00:00 9.7 3 Oeste 7 Este 0 937.1 0.4 91
2020-04-01 01:00:00 9.6 2 Oeste 10 Sudoeste 0 936.9 0.9 90
2020-04-01 00:00:00 10.4 6 Sudoeste 8 Oeste 0.2 937 1.7 90
2020-03-31 23:00:00 10.6 5 Oeste 9 Oeste 0 936.7 2.2 89
2020-03-31 22:00:00 10.3 8 Oeste 12 Sudoeste 0 936 1.6 89
2020-03-31 21:00:00 10.6 4 Noroeste 12 Oeste 0 935.3 1.2 86
2020-03-31 20:00:00 12.1 4 Oeste 6 Oeste 0 934.5 0.6 87
2020-03-31 19:00:00 12.3 3 Noroeste 15 Sudoeste 0 934.4 0.3 86
2020-03-31 18:00:00 12.1 5 Nordeste 13 Nordeste 0 934.1 -0.4 83
2020-03-31 17:00:00 12.6 6 Nordeste 15 Este 0 933.9 -0.5 79
2020-03-31 16:00:00 12.5 6 Nordeste 12 Nordeste 0 934.1 -0.2 78
2020-03-31 15:00:00 10.8 5 Este 12 Este 0 934.5 0 83
2020-03-31 14:00:00 10.7 7 Nordeste 11 Nordeste 0 934.4 0 84
2020-03-31 13:00:00 10.1 3 Nordeste -- -- 0 934.3 0.1 90
2020-03-31 12:00:00 9.4 6 Este 12 Este 0 934.5 0.7 92
2020-03-31 11:00:00 8.9 5 Este 13 Nordeste 0 934.4 1 93
2020-03-31 10:00:00 8.7 3 Este 6 Este 0 934.2 1.4 93
2020-03-31 09:00:00 8.4 3 Noroeste 5 Nordeste 0.2 933.8 1 93
2020-03-31 08:00:00 8.2 2 Noroeste 6 Este 1.6 933.4 0.1 93
2020-03-31 07:00:00 8.2 3 Este 10 Nordeste 1.8 932.8 -1.2 93
2020-03-31 06:00:00 8 6 Este 14 Este 0.6 932.8 -1.7 93
2020-03-31 05:00:00 8 6 Sudeste 15 Sudeste 0.2 933.3 -2 93
2020-03-31 04:00:00 7.9 7 Este 15 Nordeste 0 934 -1.7 93
2020-03-31 03:00:00 8 6 Este 12 Este 0.2 934.5 -1.3 93
2020-03-31 02:00:00 7.8 3 Nordeste 11 Nordeste 0 935.3 -0.5 93
2020-03-31 01:00:00 7.7 5 Este 16 Este 0 935.7 0.2 92
2020-03-31 00:00:00 7.9 4 Nordeste 13 Nordeste 0.6 935.8 0.3 92
2020-03-30 23:00:00 7.9 9 Nordeste 19 Este 1.8 935.8 0.3 92
2020-03-30 22:00:00 8.1 12 Este 23 Este 2.8 935.5 0.1 92
2020-03-30 21:00:00 8.3 10 Este 25 Este 0.2 935.5 0.2 91
2020-03-30 20:00:00 9 14 Este 25 Este 0 935.5 -0.2 90
2020-03-30 19:00:00 9.9 12 Este 30 Este 0 935.4 -0.4 88
2020-03-30 18:00:00 11.3 9 Nordeste 18 Nordeste 0 935.3 -1 85
2020-03-30 17:00:00 11.3 4 Norte 19 Norte 7.8 935.7 -1.1 88
2020-03-30 16:00:00 11.3 12 Norte 23 Este 3.8 935.8 -1.3 86
2020-03-30 15:00:00 14.4 13 Este 28 Sudeste 0 936.3 -1.3 64
2020-03-30 14:00:00 16.9 14 Este 23 Este 0 936.8 -1.1 51
2020-03-30 13:00:00 16.6 9 Nordeste 24 Norte 0 937.1 -0.8 48
2020-03-30 12:00:00 18.3 9 Nordeste 18 Este 0 937.6 -0.6 42
2020-03-30 11:00:00 15.6 4 Nordeste 12 Sudoeste 0 937.9 0 54
2020-03-30 10:00:00 13.1 6 Sudoeste 14 Sudoeste 0 937.9 0.3 63
2020-03-30 09:00:00 7.7 2 Sudoeste 15 Oeste 0 938.2 0.2 80
2020-03-30 08:00:00 7.9 10 Oeste 20 Oeste 0 937.9 -0.6 75
2020-03-30 07:00:00 8 13 Oeste 22 Oeste 0 937.6 -1.4 74
2020-03-30 06:00:00 8.4 10 Oeste 23 Oeste 0 938 -1.6 73
2020-03-30 05:00:00 7.9 2 Sudoeste 18 Oeste 0 938.5 -1.8 74
2020-03-30 04:00:00 8.3 9 Oeste 17 Sudoeste 0 939 -1.6 72
2020-03-30 03:00:00 8.6 10 Oeste 20 Sudoeste 0 939.6 -1.4 74
2020-03-30 02:00:00 9.4 11 Sur 21 Sudoeste 0 940.3 -0.9 76
2020-03-30 01:00:00 9.2 12 Sudoeste 22 Sudoeste 0 940.6 -0.8 77
2020-03-30 00:00:00 10 10 Oeste 18 Sudoeste 0 941 0.1 75
2020-03-29 23:00:00 11.4 11 Oeste 19 Sudoeste 0 941.2 0.6 71
2020-03-29 22:00:00 11.9 12 Oeste 24 Oeste 0 941.4 1.1 66
2020-03-29 21:00:00 12.8 14 Oeste 23 Oeste 0 940.9 0.6 60
2020-03-29 20:00:00 14.7 7 Sudoeste 17 Sur 0 940.6 -0.1 55
2020-03-29 19:00:00 15.9 6 Norte 13 Nordeste 0 940.3 -1.2 44
2020-03-29 18:00:00 17.7 5 Este 20 Este 0 940.3 -2 37
2020-03-29 17:00:00 17.1 3 Sudeste 18 Nordeste 0 940.7 -2.2 37
2020-03-29 16:00:00 18.2 8 Este 18 Este 0 941.5 -1.9 37
2020-03-29 15:00:00 18 8 Sudeste 18 Sudeste 0 942.3 -1.5 40
2020-03-29 14:00:00 17.1 10 Este 20 Nordeste 0 942.9 -1 41
2020-03-29 13:00:00 17 8 Este 18 Este 0 943.4 -0.4 38
2020-03-29 12:00:00 15.9 8 Este 12 Este 0 943.8 0 37
2020-03-29 11:00:00 14.2 6 Sur 13 Sudoeste 0 943.9 0.5 44
2020-03-29 10:00:00 9.4 10 Sudoeste 17 Oeste 0 943.8 0.5 61
2020-03-29 09:00:00 5.2 9 Oeste 21 Oeste 0 943.8 0.5 74
2020-03-29 08:00:00 3.5 15 Oeste 24 Oeste 0 943.4 -0.2 77
2020-03-29 07:00:00 3.6 15 Oeste 23 Oeste 0 943.3 -0.7 78
2020-03-29 06:00:00 4 10 Oeste 20 Oeste 0 943.3 -1.4 78
2020-03-29 05:00:00 4.1 12 Oeste 19 Sudoeste 0 943.6 -1.3 79
2020-03-29 03:00:00 4.7 14 Oeste 21 Oeste 0 944.7 -0.1 79
2020-03-29 01:00:00 4.9 8 Oeste 12 Sudoeste 0 944.9 0.2 80
2020-03-29 00:00:00 5.8 6 Oeste 12 Oeste 0 944.9 0.7 77
2020-03-28 23:00:00 6.1 5 Oeste 12 Noroeste 0 944.8 1.4 76
2020-03-28 22:00:00 5.5 3 Noroeste 8 Noroeste 0 944.7 1.8 81
2020-03-28 21:00:00 6.4 3 Oeste 8 Noroeste 0 944.2 1.9 78
2020-03-28 20:00:00 7.8 5 Noroeste 10 Norte 0 943.4 1.2 71
2020-03-28 19:00:00 11 4 Norte 20 Nordeste 0 942.9 0.8 54
2020-03-28 18:00:00 12.5 10 Nordeste 21 Nordeste 0 942.3 -0.2 46
2020-03-28 17:00:00 12.8 9 Nordeste 25 Nordeste 0 942.2 -0.5 42
2020-03-28 16:00:00 13.3 9 Nordeste 26 Nordeste 0 942.1 -1 45
2020-03-28 15:00:00 13.6 8 Nordeste 21 Este 0 942.5 -0.9 41
2020-03-28 14:00:00 13.1 10 Nordeste 21 Nordeste 0 942.7 -0.6 44
2020-03-28 13:00:00 12.8 8 Este 18 Sudeste 0 943.1 -0.2 52
2020-03-28 12:00:00 12 8 Sudeste 17 Este 0 943.4 0.5 58
2020-03-28 11:00:00 11.2 6 Sudeste 14 Sudeste 0 943.3 0.8 53
2020-03-28 10:00:00 8.1 3 Sudeste 10 Sudoeste 0 943.3 1.2 79
2020-03-28 09:00:00 5.3 5 Sudoeste 15 Oeste 0 942.9 1.1 90
2020-03-28 08:00:00 3.8 5 Sudoeste 10 Sudoeste 0 942.5 1.1 91
2020-03-28 07:00:00 3.6 2 Sur 8 Sur 0.4 942.1 0.9 90
2020-03-28 06:00:00 3.5 6 Nordeste 11 Este 0.2 941.8 0.8 88
2020-03-28 05:00:00 3.6 5 Este 15 Nordeste 0.6 941.4 0.6 88
2020-03-28 04:00:00 3.9 6 Norte 16 Nordeste 1.6 941.2 0.9 89
2020-03-28 03:00:00 4.3 8 Norte 15 Nordeste 3 941 0.6 91
2020-03-28 02:00:00 5.2 2 Noroeste 8 Este 5.6 940.8 0.8 91
2020-03-28 01:00:00 5.6 6 Este 14 Este 0.4 940.3 0.4 91
2020-03-28 00:00:00 5.6 3 Norte 6 Norte 0.8 940.4 0.9 91
2020-03-27 23:00:00 5.5 5 Este 16 Este 0.2 940 1.5 91
2020-03-27 22:00:00 5.5 5 Norte 12 Este 0.8 939.9 1.9 91
2020-03-27 21:00:00 5.5 5 Nordeste 13 Nordeste 1 939.5 2.1 91
2020-03-27 20:00:00 5.5 7 Nordeste 15 Nordeste 1.4 938.5 1.5 91
2020-03-27 19:00:00 5.7 8 Nordeste 15 Este 2 938 1.1 91
2020-03-27 18:00:00 5.8 10 Nordeste 21 Este 2.4 937.4 0.5 91
2020-03-27 17:00:00 6.1 9 Nordeste 16 Este 1.4 937 -0.2 91
2020-03-27 16:00:00 5.9 7 Nordeste 17 Este 2.6 936.9 -0.5 90
2020-03-27 15:00:00 6.2 8 Nordeste 17 Nordeste 0 936.9 -0.9 89
2020-03-27 14:00:00 6.1 7 Este 17 Este 0 937.2 -0.3 89
2020-03-27 13:00:00 6.5 5 Este 10 Este 0.8 937.4 0.1 86
2020-03-27 12:00:00 6.5 2 Norte 6 Nordeste 0.6 937.8 1.2 88
2020-03-27 11:00:00 6.4 4 Oeste 9 Oeste 1.2 937.5 1.1 90
2020-03-27 10:00:00 5.8 5 Nordeste 10 Nordeste 0.2 937.3 1.3 90
2020-03-27 09:00:00 5.8 2 Sur 7 Oeste 0 936.6 0.6 90
2020-03-27 08:00:00 5.4 4 Oeste 9 Oeste 0.2 936.4 0.4 90
2020-03-27 07:00:00 5.3 3 Noroeste 6 Noroeste 0.4 936 -0.1 90
2020-03-27 06:00:00 5.3 5 Nordeste 14 Este 0.8 936 -0.2 90
2020-03-27 05:00:00 5.7 8 Este 16 Este 0.4 936 -0.4 89
2020-03-27 04:00:00 6.2 9 Este 18 Este 0.4 936.1 -0.4 88
2020-03-27 03:00:00 7.3 9 Este 15 Este 0 936.2 -0.2 84
2020-03-27 02:00:00 7.6 5 Nordeste 14 Nordeste 0 936.4 0.1 79
2020-03-27 01:00:00 7.7 5 Norte 15 Nordeste 0 936.5 1.1 78
2020-03-27 00:00:00 7.7 7 Norte 19 Norte 0 936.4 1.4 78
2020-03-26 23:00:00 8.1 9 Nordeste 21 Nordeste 0 936.3 2 78
2020-03-26 22:00:00 9.2 6 Nordeste 16 Nordeste 0 935.4 1.8 82
2020-03-26 21:00:00 10.2 6 Noroeste 11 Nordeste 0 935 2.3 56
2020-03-26 20:00:00 11.6 4 Nordeste 12 Este 0 934.3 1.9 52
2020-03-26 19:00:00 13.2 9 Este 21 Este 0 933.6 1 35
2020-03-26 18:00:00 14.8 9 Sudeste 20 Sudeste 0 932.7 0.1 34
2020-03-26 17:00:00 16.1 7 Noroeste 26 Oeste 0 932.4 -0.4 29
2020-03-26 16:00:00 16.6 13 Oeste 27 Oeste 0 932.6 -0.6 30
2020-03-26 15:00:00 16.9 12 Noroeste 38 Norte 0 932.6 -1.1 28
2020-03-26 14:00:00 17.5 14 Noroeste 39 Noroeste 0 932.8 -1.3 28
2020-03-26 13:00:00 17.7 13 Noroeste 41 Oeste 0 933.2 -0.7 29
2020-03-26 12:00:00 16.7 13 Noroeste 43 Noroeste 0 933.7 -0.4 37
2020-03-26 11:00:00 15.9 13 Noroeste 42 Norte 0 934.1 -0.4 43
2020-03-26 10:00:00 14.8 10 Norte 26 Norte 0 933.9 -0.9 55
2020-03-26 09:00:00 10.3 10 Oeste 23 Sudoeste 0 934.1 -1.1 76
2020-03-26 08:00:00 6 12 Oeste 20 Sudoeste 0 934.5 -0.8 92
2020-03-26 07:00:00 2.6 2 Nordeste 10 Sudoeste 0 934.8 -0.9 91
2020-03-26 06:00:00 3.2 4 Sur 8 Oeste 0 935.2 -1.6 91
2020-03-26 05:00:00 3.6 4 Oeste 8 Noroeste 0 935.3 -2.8 90
2020-03-26 04:00:00 4.5 5 Noroeste 9 Noroeste 0 935.7 -2.9 90
2020-03-26 03:00:00 5.9 5 Noroeste 14 Sudoeste 0 936.8 -2.5 89
2020-03-26 02:00:00 7 10 Sudoeste 18 Sudoeste 1.4 938.1 -1.5 87
2020-03-26 01:00:00 7.5 6 Sudoeste 10 Sur 0 938.6 -1.8 82
2020-03-26 00:00:00 7.6 6 Sudoeste 21 Sudoeste 0 939.3 -1.2 81
2020-03-25 23:00:00 7.7 11 Oeste 23 Oeste 0 939.6 -0.3 82
2020-03-25 22:00:00 7.7 10 Oeste 24 Sudoeste 0 940.4 0.5 81
2020-03-25 21:00:00 7.9 8 Sudoeste 31 Oeste 0 940.5 0.8 81
2020-03-25 20:00:00 8 17 Oeste 27 Oeste 0 939.9 0.2 81
2020-03-25 19:00:00 9.5 10 Oeste 23 Oeste 0 939.9 -0.1 77
2020-03-25 18:00:00 11.2 8 Sudoeste 14 Sudoeste 0 939.7 -0.3 73
2020-03-25 17:00:00 11.6 5 Sur 13 Sur 0 939.7 -0.7 69
2020-03-25 16:00:00 11.9 5 Sur -- -- 0.8 940 -1.1 68
2020-03-25 15:00:00 11.8 5 Sudeste 19 Este 0.4 940 -1.4 68
2020-03-25 14:00:00 14.2 9 Este 23 Este 0 940.4 -1.3 51
2020-03-25 13:00:00 13 9 Este 17 Este 0 941.1 -0.7 52
2020-03-25 12:00:00 12.8 8 Nordeste 18 Nordeste 0 941.4 0 52
2020-03-25 11:00:00 10.7 8 Nordeste 22 Este 0 941.7 0 64
2020-03-25 10:00:00 8.5 15 Nordeste 25 Este 0 941.8 0.4 74
2020-03-25 09:00:00 8.9 3 Sudeste 9 Sudoeste 0 941.4 0.1 75
2020-03-25 08:00:00 5.3 2 Este 6 Oeste 0 941.7 0.4 89
2020-03-25 07:00:00 4.8 4 Sudoeste 8 Sudoeste 0 941.4 0.2 89
2020-03-25 06:00:00 4.3 5 Oeste 7 Oeste 0 941.3 0 88
2020-03-25 05:00:00 4.9 2 Sur 14 Nordeste 0 941.3 -0.4 83
2020-03-25 04:00:00 6 2 Nordeste 17 Nordeste 0 941.2 -0.8 77
2020-03-25 03:00:00 6.2 8 Norte 21 Norte 0 941.3 -0.7 77
2020-03-25 02:00:00 6.6 9 Norte 21 Norte 0 941.7 -0.1 83
2020-03-25 01:00:00 6.7 10 Norte 26 Norte 0 942 0.7 84
2020-03-25 00:00:00 6.8 10 Norte 23 Nordeste 0.4 942 1 86
2020-03-24 23:00:00 7.1 10 Nordeste 35 Norte 0.2 941.8 1.4 86
2020-03-24 22:00:00 7.3 14 Norte 37 Nordeste 0.8 941.3 1.4 88
2020-03-24 21:00:00 7.8 10 Nordeste 31 Nordeste 0.2 941 1.7 89
2020-03-24 20:00:00 7.9 15 Nordeste 32 Nordeste 0.8 940.4 1.2 90
2020-03-24 19:00:00 8.4 13 Nordeste 36 Nordeste 1.2 939.9 0.7 90
2020-03-24 18:00:00 9.1 9 Nordeste 19 Norte 1 939.3 0 89
2020-03-24 17:00:00 9.2 9 Nordeste 28 Norte 1.2 939.2 -0.7 89
2020-03-24 16:00:00 8.9 10 Nordeste 28 Nordeste 1.8 939.2 -0.9 89
2020-03-24 15:00:00 9 10 Norte 35 Norte 1.4 939.3 -0.8 88
2020-03-24 14:00:00 9.2 13 Nordeste 28 Nordeste 1 939.9 -0.1 87
2020-03-24 13:00:00 9.4 11 Nordeste 35 Nordeste 1.8 940.1 -0.1 88
2020-03-24 12:00:00 9.2 11 Norte 31 Norte 1.4 940.1 0.4 89
2020-03-24 11:00:00 8.6 8 Norte 23 Nordeste 2.6 940 0.5 89
2020-03-24 10:00:00 8.4 6 Nordeste 17 Nordeste 0.6 940.2 1.4 87
2020-03-24 09:00:00 8.2 5 Nordeste 19 Nordeste 0 939.7 0.6 86
2020-03-24 08:00:00 8.2 10 Nordeste 33 Norte 0 939.5 0.1 83
2020-03-24 07:00:00 8.2 13 Norte 32 Nordeste 0 938.8 -1.1 81
2020-03-24 06:00:00 7.8 17 Norte 33 Norte 0 939.1 -0.3 85
2020-03-24 05:00:00 7.5 12 Norte 28 Nordeste 0 939.4 -0.9 89
2020-03-24 04:00:00 7.8 13 Nordeste 41 Nordeste 0.8 939.9 -0.2 90
2020-03-24 03:00:00 7.9 21 Nordeste 39 Nordeste 1.8 939.4 -1 91
2020-03-24 02:00:00 8.1 9 Nordeste 34 Nordeste 2.6 940.3 -0.3 90
2020-03-24 01:00:00 8.6 12 Nordeste 27 Este 0.2 940.1 -0.4 87
2020-03-24 00:00:00 8.7 11 Nordeste 23 Nordeste 0.2 940.4 0.3 89
2020-03-23 23:00:00 8.7 9 Nordeste 22 Nordeste 2.4 940.6 0.3 90
2020-03-23 22:00:00 8.8 8 Nordeste 33 Nordeste 1.4 940.5 0.5 89
2020-03-23 21:00:00 8.5 10 Norte 22 Norte 1.6 940.1 0.9 90
2020-03-23 20:00:00 8.9 7 Nordeste 19 Este 1.2 940.3 1.4 91
2020-03-23 19:00:00 8.8 8 Nordeste 33 Este 5.2 940 1.2 90
2020-03-23 18:00:00 9.5 10 Nordeste 31 Nordeste 2.4 939.2 -0.1 89
2020-03-23 17:00:00 9.9 14 Nordeste 28 Nordeste 2 938.9 -1.2 87
2020-03-23 16:00:00 10.9 11 Nordeste 22 Norte 0.2 938.8 -1.3 82
2020-03-23 15:00:00 11.1 7 Norte 20 Este 0 939.3 -1.4 82
2020-03-23 14:00:00 11.1 9 Este 22 Este 0.4 940.1 -0.6 86
2020-03-23 13:00:00 11.7 8 Nordeste 17 Nordeste 0 940.1 -0.7 72
2020-03-23 12:00:00 11.8 7 Este 15 Nordeste 0 940.7 0.7 73
2020-03-23 11:00:00 11.5 5 Nordeste 12 Nordeste 0.2 940.7 0.9 77
2020-03-23 10:00:00 9.4 0 Calma 8 Sudeste 0 940.8 1.7 81
2020-03-23 09:00:00 7.6 2 Sur 6 Oeste 0 940 1.1 91
2020-03-23 08:00:00 6.2 0 Calma 7 Sudoeste 0 939.8 1.2 91
2020-03-23 07:00:00 4.8 3 Oeste 8 Oeste 0 939.1 0.7 90
2020-03-23 06:00:00 5.5 3 Oeste 9 Oeste 0 938.9 0.2 90
2020-03-23 05:00:00 6.7 3 Noroeste 9 Sudoeste 0 938.6 -0.3 91
2020-03-23 04:00:00 6.5 4 Noroeste 5 Noroeste 0 938.4 -0.7 90
2020-03-23 03:00:00 7 2 Norte 4 Noroeste 0 938.7 -0.5 90
2020-03-23 02:00:00 7.5 3 Norte 6 Nordeste 0 938.9 -0.4 89
2020-03-23 01:00:00 7.7 3 Norte 9 Nordeste 0 939.1 0 89
2020-03-23 00:00:00 7.9 5 Nordeste 8 Nordeste 0 939.2 0.7 90
2020-03-22 23:00:00 8 0 Calma 5 Noroeste 0 939.3 1.5 89
2020-03-22 22:00:00 8 0 Calma 10 Este 0 939.1 1.9 89
2020-03-22 21:00:00 7.9 4 Norte 7 Norte 0 938.5 2.1 89
2020-03-22 20:00:00 8.1 2 Norte 15 Nordeste 0 937.8 1.7 87
2020-03-22 19:00:00 9.1 7 Este 21 Nordeste 0 937.2 1.1 86
2020-03-22 18:00:00 10 4 Nordeste 13 Nordeste 0 936.4 0 84
2020-03-22 17:00:00 9.6 4 Norte 15 Nordeste 0 936.1 -0.5 85
2020-03-22 16:00:00 9.6 6 Este 13 Este 0.2 936.1 -1.1 87
2020-03-22 15:00:00 9.4 5 Este 11 Nordeste 0 936.4 -0.9 84
2020-03-22 14:00:00 8.4 5 Nordeste 15 Este 0.2 936.6 -0.9 87
2020-03-22 13:00:00 8.7 9 Este 13 Este 0 937.2 0.1 84
2020-03-22 12:00:00 8.8 5 Nordeste 12 Nordeste 0 937.3 0.5 81
2020-03-22 11:00:00 8 5 Este 12 Este 0 937.5 0.9 88
2020-03-22 10:00:00 7.8 7 Este 12 Este 0.2 937.1 0.7 91
2020-03-22 09:00:00 7.1 3 Sudeste 7 Sudeste 0 936.8 0.7 92
2020-03-22 08:00:00 6.6 3 Sudeste 4 Este 0 936.6 0.5 92
2020-03-22 07:00:00 5.8 3 Noroeste 7 Oeste 0 936.4 0.2 92
2020-03-22 06:00:00 5.3 2 Oeste 9 Sudoeste 0 936.1 -0.8 92
2020-03-22 05:00:00 4.6 2 Oeste 7 Oeste 0 936.1 -1 92
2020-03-22 04:00:00 4.8 0 Calma 4 Norte 0 936.2 -1.2 92
2020-03-22 03:00:00 5.7 2 Oeste 6 Oeste 0 936.9 -1.2 92
2020-03-22 02:00:00 5 3 Oeste 5 Oeste 0 937.1 -1.4 92
2020-03-22 01:00:00 5.5 3 Noroeste 6 Sudoeste 0 937.4 -1.2 91
2020-03-22 00:00:00 6 3 Oeste 11 Oeste 0 938.1 -0.6 91
2020-03-21 23:00:00 6.1 7 Oeste 10 Oeste 0 938.5 0.4 91
2020-03-21 22:00:00 6.9 0 Calma 5 Nordeste 0 938.6 0.8 90
2020-03-21 21:00:00 7.1 3 Sudeste 12 Este 0 938.7 1.3 90
2020-03-21 20:00:00 7.5 7 Este 14 Este 0 938.1 0.9 90
2020-03-21 19:00:00 7.8 6 Este 16 Este 0.2 937.8 0.4 89
2020-03-21 18:00:00 8 4 Nordeste 10 Este 0.2 937.4 -0.6 88
2020-03-21 17:00:00 8.8 5 Sudeste 12 Nordeste 0.2 937.2 -0.7 89
2020-03-21 16:00:00 8.4 3 Este 17 Sudoeste 3.2 937.4 -0.9 88
2020-03-21 15:00:00 8 10 Sudoeste 26 Sudoeste 2.2 938 -0.8 87
2020-03-21 14:00:00 8.7 12 Sudoeste 24 Sudoeste 0 937.9 -0.8 81
2020-03-21 13:00:00 9.5 6 Sudoeste 22 Sudoeste 0.4 938.3 -0.6 85
2020-03-21 12:00:00 10.7 5 Este 13 Este 0.2 938.8 0 80
2020-03-21 11:00:00 10.7 5 Nordeste 13 Nordeste 0 938.7 0.2 79
2020-03-21 10:00:00 10.7 5 Este 14 Nordeste 0 938.9 -0.2 76
2020-03-21 09:00:00 11.4 3 Este 7 Este 0 938.8 -0.4 75
2020-03-21 08:00:00 9.1 3 Este 13 Oeste 0 938.5 -0.8 85
2020-03-21 07:00:00 8.9 7 Sudoeste 13 Sudoeste 0 939.1 -0.3 84
2020-03-21 06:00:00 8.9 4 Sudoeste 18 Oeste 0 939.2 -0.8 87
2020-03-21 05:00:00 8.7 10 Oeste 17 Oeste 0 939.3 -1.2 90
2020-03-21 04:00:00 8.7 0 Calma 3 Noroeste 0 939.4 -2.1 91
2020-03-21 03:00:00 8.9 2 Noroeste 6 Noroeste 0 940 -2.1 90
2020-03-21 02:00:00 9 3 Noroeste 6 Noroeste 0 940.5 -1.6 90
2020-03-21 01:00:00 9.2 0 Calma 6 Oeste 0.2 941.5 -0.8 90
2020-03-21 00:00:00 9.4 3 Oeste 6 Oeste 0.4 942.1 0.4 89
2020-03-20 23:00:00 9.6 2 Nordeste 7 Sudeste 0 942.1 1.3 86
2020-03-20 22:00:00 10.2 8 Sudeste 16 Este 0 942.3 1.6 77
2020-03-20 21:00:00 10.5 3 Sudeste 7 Sudeste 0 941.7 1.1 73
2020-03-20 20:00:00 10.6 3 Este 6 Nordeste 0 940.8 -0.3 72
2020-03-20 19:00:00 10.9 4 Nordeste 16 Norte 0 940.7 -0.8 69
2020-03-20 18:00:00 11.7 7 Norte 15 Este 0 940.6 -1.4 63
2020-03-20 17:00:00 11.4 6 Norte 15 Nordeste 0 941.1 -1.9 65
2020-03-20 16:00:00 11.3 5 Nordeste 13 Nordeste 0 941.5 -2 66
2020-03-20 15:00:00 11.8 6 Este 14 Nordeste 0 942 -1.7 63
2020-03-20 14:00:00 10.8 8 Este 15 Sudeste 0 943 -0.7 68
2020-03-20 13:00:00 11 7 Este 17 Este 0 943.5 -0.2 64
2020-03-20 12:00:00 11.3 11 Este 21 Este 0 943.7 0.3 61
2020-03-20 11:00:00 11.7 7 Este 15 Nordeste 0 943.7 1 64
2020-03-20 10:00:00 10.3 4 Este 8 Este 0 943.7 1.1 70
2020-03-20 09:00:00 8.9 2 Sudeste 8 Este 0 943.4 1 83
2020-03-20 08:00:00 7.5 3 Nordeste 8 Este 0 942.7 0.1 88
2020-03-20 07:00:00 6.8 2 Noroeste 8 Noroeste 0 942.6 -0.2 88
2020-03-20 06:00:00 6.9 4 Noroeste 8 Norte 0 942.4 -1 87
2020-03-20 05:00:00 7.2 4 Noroeste 9 Nordeste 0 942.6 -1.5 87
2020-03-20 04:00:00 7.8 4 Nordeste 7 Nordeste 0 942.8 -1.7 87
2020-03-20 03:00:00 8.9 2 Nordeste 13 Este 0 943.4 -1.4 84
2020-03-20 02:00:00 9.1 3 Norte 13 Este 0 944.1 -0.9 84
2020-03-20 01:00:00 9.6 5 Nordeste 14 Nordeste 0 944.5 -0.5 82
2020-03-20 00:00:00 9.6 5 Nordeste 10 Norte 0 944.8 -0.1 82
2020-03-19 23:00:00 9.7 5 Nordeste 12 Nordeste 0 945 0.4 82
2020-03-19 22:00:00 9.5 4 Nordeste 8 Norte 0 945 0.6 78
2020-03-19 21:00:00 10.1 5 Nordeste 10 Este 0 944.9 0.7 76
2020-03-19 20:00:00 10.8 6 Este 15 Este 0 944.6 0.2 71
2020-03-19 19:00:00 11.8 10 Este 18 Este 0 944.4 -0.6 67
2020-03-19 18:00:00 13.1 9 Este 20 Este 0 944.2 -1.3 60
2020-03-19 17:00:00 13.6 11 Este 19 Este 0 944.4 -1.9 57
2020-03-19 16:00:00 12.7 4 Norte 10 Nordeste 0 945 -2 63
2020-03-19 15:00:00 12.4 3 Norte 9 Nordeste 0 945.5 -1.9 66
2020-03-19 14:00:00 12 4 Oeste 9 Sudeste 0 946.3 -1.4 68
2020-03-19 13:00:00 11.3 3 Este 14 Este 0 947 -0.6 70
2020-03-19 12:00:00 11.4 5 Este 15 Norte 0 947.4 0 70
2020-03-19 11:00:00 11.7 4 Este 14 Este 0 947.7 0.4 67
2020-03-19 10:00:00 10.5 2 Sur 7 Sudoeste 0 947.6 0.4 77
2020-03-19 09:00:00 9.2 3 Sur 9 Sudeste 0 947.4 0.2 85
2020-03-19 08:00:00 7.6 2 Sudoeste 3 Sudoeste 0 947.3 0.1 89
2020-03-19 07:00:00 7.4 2 Oeste 5 Sudoeste 0 947.2 -0.1 88
2020-03-19 06:00:00 7.9 0 Calma 3 Este 0 947.2 -0.6 84
2020-03-19 05:00:00 8.6 2 Sur 6 Sur 0 947.2 -1.5 82
2020-03-19 04:00:00 8.8 4 Sudoeste 7 Sudeste 0 947.3 -1.6 82
2020-03-19 03:00:00 9.1 3 Sudoeste 9 Este 0 947.8 -1.3 80
2020-03-19 02:00:00 9.4 5 Este 13 Nordeste 0 948.7 -0.9 77
2020-03-19 01:00:00 9.5 5 Nordeste 14 Norte 0 948.9 -0.5 76
2020-03-19 00:00:00 9.6 7 Norte 17 Norte 0 949.1 -0.1 75
2020-03-18 23:00:00 10 5 Nordeste 21 Nordeste 0 949.6 0.9 74
2020-03-18 22:00:00 10.4 9 Norte 20 Norte 0 949.4 1.2 72
2020-03-18 21:00:00 11.2 8 Norte 22 Nordeste 0 949.2 1.2 71
2020-03-18 20:00:00 12.1 12 Nordeste 21 Nordeste 0 948.7 0.6 69
2020-03-18 19:00:00 12.9 9 Nordeste 25 Nordeste 0 948.2 -0.2 67
2020-03-18 18:00:00 13.5 11 Nordeste 24 Nordeste 0 948 -0.7 64
2020-03-18 17:00:00 13.8 8 Nordeste 28 Nordeste 0 948.1 -1.2 64
2020-03-18 16:00:00 14.3 13 Nordeste 27 Nordeste 0 948.4 -1.5 62
2020-03-18 15:00:00 13.7 11 Nordeste 23 Nordeste 0 948.7 -1.8 63
2020-03-18 14:00:00 13.8 10 Nordeste 25 Nordeste 0 949.3 -1.6 62
2020-03-18 13:00:00 14.3 10 Nordeste 27 Norte 0 949.9 -0.9 62
2020-03-18 12:00:00 13.3 12 Nordeste 25 Nordeste 0 950.5 -0.1 69
2020-03-18 11:00:00 12.3 15 Nordeste 26 Nordeste 0 950.9 0.5 73
2020-03-18 10:00:00 11.5 10 Nordeste 22 Norte 0 950.8 0.3 75
2020-03-18 09:00:00 10.7 6 Nordeste 22 Norte 0 950.6 0.3 78
2020-03-18 08:00:00 9.4 4 Nordeste 18 Nordeste 0 950.4 0.4 82
2020-03-18 07:00:00 9.1 6 Nordeste 25 Norte 0 950.5 0.6 83
2020-03-18 06:00:00 9.5 10 Norte 22 Nordeste 0 950.3 -0.1 84
2020-03-18 05:00:00 9.6 10 Norte 25 Norte 0 950 -0.3 84
2020-03-18 04:00:00 9.7 7 Nordeste 17 Norte 0 949.9 -0.5 86
2020-03-18 03:00:00 10.2 6 Nordeste 17 Nordeste 0 950.4 0.1 85
2020-03-18 02:00:00 10.3 8 Nordeste 22 Nordeste 0 950.3 0.1 86
2020-03-18 01:00:00 10.7 8 Nordeste 18 Este 0 950.4 0.4 87
2020-03-18 00:00:00 11 12 Nordeste 26 Norte 0 950.3 1 86
2020-03-17 23:00:00 11.2 11 Norte 29 Norte 0 950.2 1.6 87
2020-03-17 22:00:00 11.3 13 Norte 32 Norte 0 950 2 90
2020-03-17 21:00:00 11.3 14 Norte 34 Nordeste 0.6 949.3 1.5 91
2020-03-17 20:00:00 11.4 12 Nordeste 26 Norte 2 948.6 0.9 90
2020-03-17 19:00:00 11.4 10 Norte 25 Norte 0.4 948 0.4 87
2020-03-17 18:00:00 12 11 Nordeste 25 Nordeste 0 947.8 0.2 80
2020-03-17 17:00:00 12.4 9 Nordeste 21 Este 0 947.7 -0.2 71
2020-03-17 16:00:00 12.5 10 Nordeste 24 Este 0 947.6 -0.7 65
2020-03-17 15:00:00 12.8 7 Nordeste 23 Nordeste 0 947.6 -1.2 63
2020-03-17 14:00:00 14.7 11 Nordeste 21 Este 0 947.9 -0.7 55
2020-03-17 13:00:00 12 7 Este 14 Este 0 948.3 0.2 64
2020-03-17 12:00:00 10.5 9 Este 15 Este 0 948.8 1.7 70
2020-03-17 11:00:00 9.6 7 Este 15 Este 0 948.6 2.1 74
2020-03-17 10:00:00 8.4 4 Este 13 Este 0 948.1 2.7 85
2020-03-17 09:00:00 6.4 0 Calma 4 Sur 0 947.1 2.3 86
2020-03-17 08:00:00 4.8 2 Sur 6 Sudeste 0 946.5 2.4 87
2020-03-17 07:00:00 4.1 3 Norte 9 Oeste 0 945.4 1.5 87
2020-03-17 06:00:00 3.3 10 Oeste 17 Oeste 0 944.8 0.9 85
2020-03-17 05:00:00 3.4 6 Sudoeste 12 Oeste 0 944.1 0.4 88
2020-03-17 04:00:00 1.9 6 Sudoeste 12 Oeste 0 943.9 0.4 91
2020-03-17 03:00:00 2.1 6 Sudoeste 9 Sudoeste 0 943.9 0.6 91
2020-03-17 02:00:00 1.9 4 Oeste 10 Sudoeste 0 943.7 0.7 90
2020-03-17 01:00:00 0.9 3 Noroeste 8 Noroeste 0 943.5 1.3 90
2020-03-17 00:00:00 2 2 Norte 10 Oeste 0 943.3 1.9 90
2020-03-16 23:00:00 2.3 6 Noroeste 8 Noroeste 0 943 2.8 90
2020-03-16 22:00:00 2.7 2 Oeste 4 Oeste 0 942.2 2.8 88
2020-03-16 21:00:00 3.3 0 Calma 5 Oeste 0 941.4 2.9 86
2020-03-16 20:00:00 4.9 4 Norte 12 Nordeste 0 940.2 2.2 82
2020-03-16 19:00:00 6.8 7 Nordeste 17 Nordeste 0 939.4 1.4 74
2020-03-16 18:00:00 8.1 10 Nordeste 26 Nordeste 0 938.5 0.6 69
2020-03-16 17:00:00 8.8 12 Este 25 Este 0 938 0.3 69
2020-03-16 16:00:00 8.9 14 Este 24 Nordeste 0 938 0.2 68
2020-03-16 15:00:00 7.8 12 Nordeste 22 Nordeste 0 937.9 0.4 74
2020-03-16 14:00:00 7.9 10 Nordeste 22 Nordeste 0 937.7 0.6 81
2020-03-16 13:00:00 9.2 10 Nordeste 21 Nordeste 0 937.8 1.1 78
2020-03-16 12:00:00 7.9 10 Sudoeste 32 Sudoeste 1 937.5 1.1 81
2020-03-16 11:00:00 10 8 Oeste 26 Oeste 0 937.1 0.9 74
2020-03-16 10:00:00 12.2 6 Sudoeste 14 Sudoeste 0 936.7 1 75
2020-03-16 09:00:00 12 9 Sudoeste 19 Sudoeste 0 936.4 0.7 78
2020-03-16 08:00:00 10.2 8 Oeste 18 Sur 0 936.2 0 85
2020-03-16 07:00:00 9.6 12 Oeste 26 Sudoeste 0 935.7 -1 82
2020-03-16 06:00:00 9.8 11 Sudoeste 23 Oeste 0 935.7 -1.9 85
2020-03-16 05:00:00 10.5 6 Oeste 11 Sur 0 936.2 -2.5 85
2020-03-16 04:00:00 11.3 5 Sur 11 Sur 0 936.7 -2.6 84
2020-03-16 03:00:00 11.4 7 Sudoeste 17 Sudoeste 0 937.6 -2.3 85
2020-03-16 02:00:00 11.4 6 Sudoeste 17 Sudoeste 0 938.7 -0.9 86
2020-03-16 01:00:00 11.6 9 Sudoeste 19 Sudoeste 0 939.3 -0.4 86
2020-03-16 00:00:00 11.4 3 Nordeste 14 Nordeste 0 939.9 0.4 85
2020-03-15 23:00:00 12.2 4 Sudeste 13 Nordeste 0 939.6 0.3 79
2020-03-15 22:00:00 13.3 4 Oeste 19 Oeste 0 939.7 -0.2 72
2020-03-15 21:00:00 13.1 5 Oeste 15 Sudoeste 0 939.5 -0.2 69
2020-03-15 20:00:00 14.2 7 Sudoeste 21 Sudoeste 0 939.3 -0.3 61
2020-03-15 19:00:00 15.1 12 Sudoeste 26 Oeste 0 939.9 -0.3 66
2020-03-15 18:00:00 16.7 11 Sur 28 Sudoeste 0 939.7 -0.7 58
2020-03-15 17:00:00 17.8 9 Este 19 Nordeste 0 939.6 -1.8 56
2020-03-15 16:00:00 18.3 11 Este 22 Sudeste 0 940.2 -2.2 55
2020-03-15 15:00:00 19.5 10 Este 19 Nordeste 0 940.4 -2.9 50
2020-03-15 14:00:00 18.5 8 Este 19 Este 0 941.4 -2.4 50
2020-03-15 13:00:00 18.4 8 Este 17 Este 0 942.4 -1.8 52
2020-03-15 12:00:00 16.5 8 Sudeste 15 Sudeste 0 943.3 -0.6 56
2020-03-15 11:00:00 16.4 7 Este 14 Este 0 943.8 0.2 59
2020-03-15 10:00:00 13.6 4 Sudeste 9 Este 0 944.2 0.7 67
2020-03-15 09:00:00 12 4 Sudoeste 15 Sudoeste 0 943.9 0.5 70
2020-03-15 08:00:00 8.2 8 Oeste 14 Oeste 0 943.6 0.1 84
2020-03-15 07:00:00 8.1 3 Oeste 8 Oeste 0 943.5 -0.3 85
2020-03-15 06:00:00 10.6 6 Oeste 12 Oeste 0 943.4 -1 82
2020-03-15 05:00:00 11.4 5 Oeste 12 Sudoeste 0 943.5 -1.3 83
2020-03-15 04:00:00 11.8 5 Sudoeste 12 Oeste 0 943.8 -1.2 83
2020-03-15 03:00:00 11.9 5 Oeste 11 Oeste 0 944.4 -0.9 84
2020-03-15 02:00:00 11.7 7 Oeste 13 Sudoeste 0 944.8 -0.5 84
2020-03-15 01:00:00 11.7 5 Oeste 14 Oeste 0 945 -0.1 86
2020-03-15 00:00:00 11.4 7 Oeste 13 Oeste 0 945.3 0.7 88
2020-03-14 23:00:00 10.5 3 Sudoeste 6 Nordeste 0 945.3 1.1 85
2020-03-14 22:00:00 12.3 2 Norte 8 Este 0 945.1 1 82
2020-03-14 21:00:00 13.3 3 Oeste 9 Oeste 0 944.6 0.9 75
2020-03-14 20:00:00 14.6 4 Norte 14 Este 0 944.2 0.7 70
2020-03-14 19:00:00 16.6 5 Este 18 Nordeste 0 944.1 0.3 61
2020-03-14 18:00:00 17.7 10 Este 19 Nordeste 0 943.7 -0.5 54
2020-03-14 17:00:00 19.1 9 Este 24 Este 0 943.5 -1.3 47
2020-03-14 16:00:00 19.7 10 Este 22 Este 0 943.8 -1.6 47
2020-03-14 15:00:00 20.1 12 Este 23 Este 0 944.2 -1.7 45
2020-03-14 14:00:00 20.1 10 Este 20 Este 0 944.8 -1.4 45
2020-03-14 13:00:00 19.5 9 Sudeste 18 Este 0 945.4 -0.6 45
2020-03-14 12:00:00 18.1 8 Este 18 Sudeste 0 945.9 0.4 49
2020-03-14 11:00:00 16.8 8 Este 14 Este 0 946.2 1.2 51
2020-03-14 10:00:00 15.1 4 Sudeste 8 Este 0 946 1.3 54
2020-03-14 09:00:00 11.3 6 Sudoeste 15 Oeste 0 945.5 0.9 66
2020-03-14 08:00:00 7.5 6 Oeste 14 Sudoeste 0 945 1 81
2020-03-14 07:00:00 7.1 9 Oeste 16 Oeste 0 944.7 0.4 82
2020-03-14 06:00:00 6.4 3 Oeste 7 Nordeste 0 944.6 -0.4 84
2020-03-14 05:00:00 8.7 6 Norte 13 Oeste 0 944 -1.1 76
2020-03-14 04:00:00 8.8 6 Oeste 10 Sudoeste 0 944.3 -0.6 78
2020-03-14 03:00:00 8.5 3 Este 7 Norte 0 945 -0.1 80
2020-03-14 02:00:00 9 3 Nordeste 6 Este 0 945.1 -0.2 80
2020-03-14 01:00:00 9.2 2 Norte 4 Este 0 944.9 0 79
2020-03-14 00:00:00 8.7 3 Norte 6 Noroeste 0 945.1 0.9 79
2020-03-13 23:00:00 9.6 3 Noroeste 4 Noroeste 0 945.3 1.6 75
2020-03-13 22:00:00 11.5 3 Noroeste 8 Sudoeste 0 944.9 1.6 67
2020-03-13 21:00:00 12.7 3 Norte 8 Nordeste 0 944.2 1.4 62
2020-03-13 20:00:00 14.2 3 Norte 15 Nordeste 0 943.7 1.3 55
2020-03-13 19:00:00 15.6 6 Nordeste 18 Nordeste 0 943.3 0.7 52
2020-03-13 18:00:00 16.9 12 Nordeste 22 Este 0 942.8 -0.1 45
2020-03-13 17:00:00 19.4 12 Este 23 Este 0 942.4 -1.2 44
2020-03-13 16:00:00 21 10 Este 19 Este 0 942.6 -1.6 41
2020-03-13 15:00:00 20.8 9 Este 21 Este 0 942.9 -1.4 36
2020-03-13 14:00:00 21.4 8 Este 20 Nordeste 0 943.6 -0.8 35
2020-03-13 13:00:00 20.6 8 Nordeste 15 Este 0 944.2 -0.3 38
2020-03-13 12:00:00 19.7 7 Este 11 Este 0 944.3 0.1 42
2020-03-13 11:00:00 19.2 5 Este 8 Este 0 944.4 0.7 40
2020-03-13 10:00:00 17.9 4 Sur 14 Sudoeste 0 944.5 1.6 44
2020-03-13 09:00:00 13.4 5 Sudoeste 14 Oeste 0 944.2 1.6 54
2020-03-13 08:00:00 9.2 6 Oeste 15 Sudoeste 0 943.7 1.2 68
2020-03-13 07:00:00 9.2 3 Oeste 22 Oeste 0 942.9 0.2 68
2020-03-13 06:00:00 9.9 4 Noroeste 21 Oeste 0 942.6 -0.5 66
2020-03-13 05:00:00 11.5 13 Oeste 22 Oeste 0 942.5 -0.8 58
2020-03-13 04:00:00 10.9 7 Oeste 17 Oeste 0 942.7 -1.2 62
2020-03-13 03:00:00 11.4 8 Oeste 20 Oeste 0 943.1 -1.1 61
2020-03-13 02:00:00 12.6 10 Oeste 20 Oeste 0 943.3 -0.7 56
2020-03-13 01:00:00 12.8 9 Oeste 18 Oeste 0 943.9 -0.1 56
2020-03-13 00:00:00 12 5 Oeste 11 Oeste 0 944.2 0.5 61
2020-03-12 23:00:00 14.1 7 Oeste 12 Sudoeste 0 944 0.5 52
2020-03-12 22:00:00 16.5 8 Sudoeste 18 Oeste 0 944 0.8 44
2020-03-12 21:00:00 18.1 10 Oeste 18 Oeste 0 943.7 0.8 40
2020-03-12 20:00:00 17.9 5 Noroeste 9 Oeste 0 943.5 0.5 45
2020-03-12 19:00:00 21.3 4 Norte 12 Este 0 943.2 -0.2 35
2020-03-12 18:00:00 24.1 7 Este 20 Este 0 942.9 -1.1 28
2020-03-12 17:00:00 24.9 11 Este 23 Este 0 943 -2.1 27
2020-03-12 16:00:00 26 10 Este 18 Este 0 943.4 -2.9 27
2020-03-12 15:00:00 27.1 7 Este 17 Sur 0 944 -2.7 25
2020-03-12 14:00:00 27.7 7 Sudoeste 20 Sur 0 945.1 -1.9 20
2020-03-12 13:00:00 27 9 Sudoeste 20 Sur 0 946.3 -0.8 22
2020-03-12 12:00:00 24.9 12 Sudoeste 20 Sudoeste 0 946.7 -0.4 24
2020-03-12 11:00:00 23.5 8 Sudoeste 16 Sur 0 947 0.1 29
2020-03-12 10:00:00 19.5 7 Sudoeste 14 Sudoeste 0 947.1 0.3 40
2020-03-12 09:00:00 15.2 8 Sudoeste 23 Oeste 0 947.1 0.4 51
2020-03-12 08:00:00 11.3 12 Oeste 16 Sudoeste 0 946.9 0 59
2020-03-12 07:00:00 8.3 6 Oeste 11 Sudoeste 0 946.8 -0.6 73
2020-03-12 06:00:00 9.5 8 Oeste 17 Oeste 0 946.7 -1.3 67
2020-03-12 05:00:00 10.6 9 Oeste 17 Oeste 0 946.9 -1.5 62
2020-03-12 04:00:00 11.1 7 Oeste 18 Oeste 0 947.4 -1.2 60
2020-03-12 03:00:00 10.6 3 Oeste 15 Oeste 0 948 -0.6 63
2020-03-12 02:00:00 11 4 Oeste 18 Oeste 0 948.4 -0.2 61
2020-03-12 01:00:00 13.5 11 Oeste 24 Oeste 0 948.6 0 51
2020-03-12 00:00:00 15 10 Oeste 18 Sudoeste 0 948.6 0.3 45
2020-03-11 23:00:00 16.6 10 Sudoeste 21 Sudoeste 0 948.6 0.7 40
2020-03-11 22:00:00 17.7 7 Sudoeste 18 Oeste 0 948.6 0.9 37
2020-03-11 21:00:00 20 10 Oeste 17 Oeste 0 948.3 0.9 31
2020-03-11 20:00:00 21.2 10 Oeste 15 Oeste 0 947.9 0.7 30
2020-03-11 19:00:00 21.7 7 Oeste 13 Este 0 947.7 0.2 31
2020-03-11 18:00:00 25.8 7 Este 19 Nordeste 0 947.4 -0.5 21
2020-03-11 17:00:00 27 7 Este 20 Este 0 947.2 -1.4 19
2020-03-11 16:00:00 27.7 9 Nordeste 21 Este 0 947.5 -2 20
2020-03-11 15:00:00 28.1 8 Este 20 Este 0 947.9 -2.4 21
2020-03-11 14:00:00 27.6 7 Este 16 Este 0 948.6 -2.2 21
2020-03-11 13:00:00 26.6 5 Este 11 Este 0 949.5 -1.3 23
2020-03-11 12:00:00 24.3 4 Sudeste 10 Sudeste 0 950.3 -0.1 25
2020-03-11 11:00:00 22.6 4 Este 10 Este 0 950.8 1 26
2020-03-11 10:00:00 20.1 3 Sur 12 Oeste 0 950.8 1.5 32
2020-03-11 09:00:00 15.6 8 Sudoeste 18 Oeste 0 950.4 1.3 44
2020-03-11 08:00:00 10.4 5 Oeste 24 Oeste 0 949.8 0.6 57
2020-03-11 07:00:00 11.3 18 Oeste 28 Sudoeste 0 949.3 -0.2 50
2020-03-11 06:00:00 12.1 15 Oeste 28 Oeste 0 949.1 -0.9 47
2020-03-11 05:00:00 12.6 18 Oeste 31 Sudoeste 0 949.2 -1.2 44
2020-03-11 04:00:00 12.2 10 Oeste 26 Oeste 0 949.5 -1.3 48
2020-03-11 03:00:00 12.2 17 Oeste 23 Oeste 0 950 -0.8 51
2020-03-11 02:00:00 13 12 Oeste 22 Oeste 0 950.4 -0.6 51
2020-03-11 01:00:00 11.1 7 Oeste 19 Oeste 0 950.8 -0.1 61
2020-03-11 00:00:00 13 15 Oeste 23 Oeste 0 950.8 0.1 55
2020-03-10 23:00:00 13.7 14 Oeste 22 Sudoeste 0 951 0.6 52
2020-03-10 22:00:00 14.4 14 Oeste 22 Oeste 0 950.9 0.9 50
2020-03-10 21:00:00 15.7 6 Oeste 19 Oeste 0 950.7 1.1 50
2020-03-10 20:00:00 17.3 10 Oeste 22 Oeste 0 950.4 1 46
2020-03-10 19:00:00 18.3 7 Noroeste 10 Noroeste 0 950 0.5 37
2020-03-10 18:00:00 21.8 4 Sudeste 18 Este 0 949.6 -0.4 26
2020-03-10 17:00:00 22.6 10 Sudeste 18 Nordeste 0 949.4 -1.2 25
2020-03-10 16:00:00 23.4 12 Este 27 Nordeste 0 949.5 -1.9 24
2020-03-10 15:00:00 22.9 12 Nordeste 28 Nordeste 0 950 -2.1 25
2020-03-10 14:00:00 22.4 15 Nordeste 26 Nordeste 0 950.6 -1.9 26
2020-03-10 13:00:00 21.4 11 Nordeste 19 Este 0 951.4 -0.6 26
2020-03-10 12:00:00 20 8 Sudeste 17 Sudeste 0 952.1 0.5 30
2020-03-10 11:00:00 18.2 6 Este 12 Este 0 952.5 1.6 32
2020-03-10 10:00:00 15.9 5 Este 11 Sudeste 0 952 2 36
2020-03-10 09:00:00 12.9 4 Nordeste 8 Oeste 0 951.6 1.8 44
2020-03-10 08:00:00 7.7 4 Oeste 10 Noroeste 0 950.9 1.5 63
2020-03-10 07:00:00 6.9 4 Sudoeste 13 Norte 0 950 0.8 64
2020-03-10 06:00:00 7.3 5 Noroeste 13 Oeste 0 949.8 0.5 63
2020-03-10 05:00:00 10.3 8 Sudoeste 15 Sudoeste 0 949.4 0 47
2020-03-10 04:00:00 9.6 4 Sur 13 Oeste 0 949.2 -0.8 49
2020-03-10 03:00:00 10.3 4 Oeste 15 Sur 0 949.3 -0.3 45
2020-03-10 02:00:00 11.9 7 Sur 23 Norte 0 949.4 0.2 38
2020-03-10 01:00:00 13.1 5 Este 20 Norte 0 950 0.9 33
2020-03-10 00:00:00 12.9 7 Sudoeste 25 Noroeste 0 949.6 0.9 33